createdAt,value
2023-01-13T08:09:45.327Z,20.86
2023-01-13T08:14:50.157Z,21.05
2023-01-13T08:19:53.226Z,21.16
2023-01-13T08:24:57.462Z,21.29
2023-01-13T08:30:00.313Z,21.46
2023-01-13T08:35:03.179Z,21.68
2023-01-13T08:40:09.347Z,21.80
2023-01-13T08:45:12.558Z,21.94
2023-01-13T08:50:15.672Z,22.19
2023-01-13T08:55:19.926Z,22.28
2023-01-13T09:00:23.165Z,22.41
2023-01-13T09:05:26.158Z,22.65
2023-01-13T09:10:30.395Z,22.67
2023-01-13T09:15:33.295Z,22.84
2023-01-13T09:20:36.183Z,22.81
2023-01-13T09:25:40.761Z,22.84
2023-01-13T09:30:43.666Z,22.92
2023-01-13T09:35:47.016Z,22.78
2023-01-13T09:40:51.434Z,22.61
2023-01-13T09:45:57.705Z,22.64
2023-01-13T09:51:04.662Z,22.91
2023-01-13T09:56:10.506Z,22.95
2023-01-13T10:01:20.964Z,22.89
2023-01-13T10:06:29.367Z,23.03
2023-01-13T10:11:54.631Z,23.13
2023-01-13T10:17:05.177Z,23.16
2023-01-13T10:22:26.408Z,23.22
2023-01-13T10:27:34.473Z,23.17
2023-01-13T10:32:37.337Z,23.26
2023-01-13T10:37:40.129Z,23.25
2023-01-13T10:42:44.411Z,23.29
2023-01-13T10:48:05.627Z,23.33
2023-01-13T10:53:18.719Z,23.35
2023-01-13T10:58:22.892Z,23.41
2023-01-13T11:03:26.087Z,23.45
2023-01-13T11:08:30.557Z,23.47
2023-01-13T11:13:37.153Z,23.39
2023-01-13T11:18:51.551Z,23.38
2023-01-13T11:24:03.366Z,23.38
2023-01-13T11:29:13.769Z,23.32
2023-01-13T11:34:25.920Z,23.34
2023-01-13T11:39:36.037Z,23.11
2023-01-13T11:44:42.756Z,23.05
2023-01-13T11:49:48.542Z,22.99
2023-01-13T11:55:04.223Z,22.88
2023-01-13T12:00:29.903Z,22.75
2023-01-13T12:05:37.991Z,22.62
2023-01-13T12:10:58.968Z,22.60
2023-01-13T12:16:11.024Z,22.48
2023-01-13T12:21:20.908Z,22.44
2023-01-13T12:26:24.330Z,22.38
2023-01-13T12:31:29.097Z,22.36
2023-01-13T12:36:38.598Z,22.32
2023-01-13T12:41:58.674Z,22.34
2023-01-13T12:47:02.880Z,22.31
2023-01-13T12:52:23.607Z,22.15
2023-01-13T12:57:27.896Z,22.19
2023-01-13T13:02:34.783Z,22.23
2023-01-13T13:07:41.742Z,22.27
2023-01-13T13:13:11.491Z,22.25
2023-01-13T13:18:29.739Z,22.68
2023-01-13T13:24:03.909Z,22.88
2023-01-13T13:29:16.647Z,22.86
2023-01-13T13:34:27.975Z,22.89
2023-01-13T13:39:49.628Z,23.07
2023-01-13T13:45:10.191Z,23.19
2023-01-13T13:50:16.465Z,23.31
2023-01-13T13:55:21.381Z,23.13
2023-01-13T14:00:26.772Z,23.21
2023-01-13T14:05:32.032Z,23.28
2023-01-13T14:10:44.845Z,23.31
2023-01-13T14:15:48.445Z,23.39
2023-01-13T14:20:59.253Z,23.31
2023-01-13T14:26:04.270Z,23.59
2023-01-13T14:31:09.001Z,23.48
2023-01-13T14:36:16.650Z,23.41
2023-01-13T14:41:23.016Z,23.29
2023-01-13T14:46:26.359Z,23.08
2023-01-13T14:51:31.377Z,23.05
2023-01-13T14:56:47.300Z,22.76
2023-01-13T15:01:50.223Z,23.26
2023-01-13T15:06:56.980Z,23.48
2023-01-13T15:12:00.595Z,23.54
2023-01-13T15:17:03.621Z,23.49
2023-01-13T15:22:07.836Z,23.19
2023-01-13T15:27:19.176Z,23.30
2023-01-13T15:32:22.892Z,23.03
2023-01-13T15:37:27.087Z,23.34
2023-01-13T15:42:47.387Z,23.30
2023-01-13T15:47:50.193Z,23.39
2023-01-13T15:52:54.484Z,23.33
2023-01-13T15:57:57.460Z,23.23
2023-01-13T16:03:00.685Z,23.08
2023-01-13T16:08:08.027Z,22.90
2023-01-13T16:13:11.492Z,22.84
2023-01-13T16:18:18.338Z,22.72
2023-01-13T16:23:23.423Z,22.70
2023-01-13T16:28:28.203Z,22.75
2023-01-13T16:33:31.044Z,22.69
2023-01-13T16:38:36.785Z,22.69
2023-01-13T16:43:39.586Z,22.54
2023-01-13T16:48:42.393Z,22.52
2023-01-13T16:53:46.637Z,22.50
2023-01-13T16:58:49.624Z,22.36
2023-01-13T17:03:52.966Z,22.29
2023-01-13T17:09:01.370Z,22.23
2023-01-13T17:14:18.265Z,22.23
2023-01-13T17:19:22.336Z,22.14
2023-01-13T17:24:28.767Z,22.12
2023-01-13T17:29:32.812Z,22.08
2023-01-13T17:34:35.627Z,22.07
2023-01-13T17:39:39.803Z,22.02
2023-01-13T17:44:43.050Z,21.99
2023-01-13T17:49:46.073Z,21.95
2023-01-13T17:54:50.269Z,21.89
2023-01-13T17:59:54.341Z,21.88
2023-01-13T18:04:57.127Z,21.84
2023-01-13T18:10:01.301Z,21.81
2023-01-13T18:15:04.291Z,21.73
2023-01-13T18:20:24.745Z,21.71
2023-01-13T18:25:46.598Z,21.66
2023-01-13T18:30:49.443Z,21.62
2023-01-13T18:35:52.428Z,21.57
2023-01-13T18:40:56.556Z,21.51
2023-01-13T18:46:00.847Z,21.44
2023-01-13T18:51:03.930Z,21.42
2023-01-13T18:56:12.065Z,21.40
2023-01-13T19:01:15.092Z,21.33
2023-01-13T19:06:19.028Z,21.31
2023-01-13T19:11:24.163Z,21.28
2023-01-13T19:16:27.004Z,21.26
2023-01-13T19:21:29.894Z,21.24
2023-01-13T19:26:34.107Z,21.19
2023-01-13T19:31:36.919Z,21.15
2023-01-13T19:36:39.970Z,21.10
2023-01-13T19:42:01.514Z,21.09
2023-01-13T19:47:04.662Z,21.07
2023-01-13T19:52:07.519Z,21.03
2023-01-13T19:57:11.740Z,21.02
2023-01-13T20:02:17.160Z,20.98
2023-01-13T20:07:20.038Z,20.99
2023-01-13T20:12:24.506Z,20.92
2023-01-13T20:17:29.064Z,20.92
2023-01-13T20:22:32.504Z,20.91
2023-01-13T20:27:36.951Z,20.85
2023-01-13T20:32:39.832Z,20.82
2023-01-13T20:37:43.961Z,20.79
2023-01-13T20:42:48.836Z,20.77
2023-01-13T20:47:52.776Z,20.79
2023-01-13T20:53:13.947Z,20.77
2023-01-13T20:58:18.117Z,20.72
2023-01-13T21:03:20.911Z,20.70
2023-01-13T21:08:23.696Z,20.70
2023-01-13T21:13:45.360Z,20.65
2023-01-13T21:19:10.760Z,20.61
2023-01-13T21:24:14.042Z,20.61
2023-01-13T21:29:18.219Z,20.60
2023-01-13T21:34:21.114Z,20.59
2023-01-13T21:39:23.971Z,20.57
2023-01-13T21:44:45.787Z,20.54
2023-01-13T21:49:51.428Z,20.53
2023-01-13T21:55:12.015Z,20.52
2023-01-13T22:00:18.705Z,20.50
2023-01-13T22:05:22.658Z,20.49
2023-01-13T22:10:28.311Z,20.47
2023-01-13T22:15:33.960Z,20.45
2023-01-13T22:20:36.799Z,20.45
2023-01-13T22:25:40.444Z,20.44
2023-01-13T22:30:45.304Z,20.44
2023-01-13T22:35:55.229Z,20.42
2023-01-13T22:40:58.854Z,20.40
2023-01-13T22:46:06.231Z,20.38
2023-01-13T22:51:10.890Z,20.36
2023-01-13T22:56:17.849Z,20.34
2023-01-13T23:01:22.325Z,20.35
2023-01-13T23:06:26.611Z,20.34
2023-01-13T23:11:30.838Z,20.33
2023-01-13T23:16:36.662Z,20.31
2023-01-13T23:21:39.757Z,20.33
2023-01-13T23:26:42.601Z,20.34
2023-01-13T23:31:46.773Z,20.38
2023-01-13T23:36:49.641Z,20.39
2023-01-13T23:41:52.648Z,20.40
2023-01-13T23:46:56.787Z,20.42
2023-01-13T23:51:59.853Z,20.40
2023-01-13T23:57:02.659Z,20.40
